createdAt,value
2023-05-01T00:00:32.000Z,0
2023-05-01T00:01:48.000Z,0
2023-05-01T00:03:04.030Z,0
2023-05-01T00:04:21.000Z,0
2023-05-01T00:05:37.000Z,0
2023-05-01T00:06:52.598Z,0
2023-05-01T00:08:09.000Z,0
2023-05-01T00:09:24.976Z,0
2023-05-01T00:10:41.000Z,0
2023-05-01T00:11:56.370Z,0
2023-05-01T00:13:13.000Z,0
2023-05-01T00:14:28.747Z,0
2023-05-01T00:15:44.937Z,0
2023-05-01T00:17:02.000Z,0
2023-05-01T00:18:18.000Z,0
2023-05-01T00:19:34.000Z,0
2023-05-01T00:20:50.000Z,0
2023-05-01T00:22:06.000Z,0
2023-05-01T00:23:23.000Z,0
2023-05-01T00:24:39.000Z,0
2023-05-01T00:25:55.000Z,0
2023-05-01T00:27:10.000Z,0
2023-05-01T00:28:25.843Z,0
2023-05-01T00:29:43.000Z,0
2023-05-01T00:30:59.000Z,0
2023-05-01T00:32:15.000Z,0
2023-05-01T00:33:31.000Z,0
2023-05-01T00:34:47.000Z,0
2023-05-01T00:36:03.000Z,0
2023-05-01T00:37:19.165Z,0
2023-05-01T00:38:36.000Z,0
2023-05-01T00:39:52.000Z,0
2023-05-01T00:41:08.000Z,0
2023-05-01T00:42:24.000Z,0
2023-05-01T00:43:39.127Z,0
2023-05-01T00:44:56.000Z,0
2023-05-01T00:46:12.000Z,0
2023-05-01T00:47:27.697Z,0
2023-05-01T00:48:44.000Z,0
2023-05-01T00:50:01.000Z,0
2023-05-01T00:51:16.267Z,0
2023-05-01T00:52:33.000Z,0
2023-05-01T00:53:49.000Z,0
2023-05-01T00:55:04.837Z,0
2023-05-01T00:56:22.000Z,0
2023-05-01T00:57:38.000Z,0
2023-05-01T00:58:54.000Z,0
2023-05-01T01:00:08.613Z,0
2023-05-01T01:01:24.804Z,0
2023-05-01T01:02:41.000Z,0
2023-05-01T01:03:58.000Z,0
2023-05-01T01:05:13.374Z,0
2023-05-01T01:06:30.000Z,0
2023-05-01T01:07:46.000Z,0
2023-05-01T01:09:02.000Z,0
2023-05-01T01:10:19.000Z,0
2023-05-01T01:11:35.000Z,0
2023-05-01T01:12:51.000Z,0
2023-05-01T01:14:07.000Z,0
2023-05-01T01:15:23.000Z,0
2023-05-01T01:16:39.000Z,0
2023-05-01T01:17:55.000Z,0
2023-05-01T01:19:11.000Z,0
2023-05-01T01:20:27.000Z,0
2023-05-01T01:21:43.000Z,0
2023-05-01T01:23:00.000Z,0
2023-05-01T01:24:15.241Z,0
2023-05-01T01:25:32.000Z,0
2023-05-01T01:26:47.621Z,0
2023-05-01T01:28:04.000Z,0
2023-05-01T01:29:20.002Z,0
2023-05-01T01:30:37.000Z,0
2023-05-01T01:31:53.000Z,0
2023-05-01T01:33:08.000Z,0
2023-05-01T01:34:23.778Z,0
2023-05-01T01:35:40.000Z,0
2023-05-01T01:36:57.000Z,0
2023-05-01T01:38:13.000Z,0
2023-05-01T01:39:29.000Z,0
2023-05-01T01:40:45.000Z,0
2023-05-01T01:42:00.920Z,0
2023-05-01T01:43:18.000Z,0
2023-05-01T01:44:34.000Z,0
2023-05-01T01:45:49.490Z,0
2023-05-01T01:47:05.680Z,0
2023-05-01T01:48:21.869Z,0
2023-05-01T01:49:38.000Z,0
2023-05-01T01:50:53.266Z,0
2023-05-01T01:52:09.456Z,0
2023-05-01T01:53:26.000Z,0
2023-05-01T01:54:41.837Z,0
2023-05-01T01:55:59.000Z,0
2023-05-01T01:57:14.217Z,0
2023-05-01T01:58:31.000Z,0
2023-05-01T01:59:46.597Z,0
2023-05-01T02:01:02.788Z,0
2023-05-01T02:02:18.978Z,0
2023-05-01T02:03:36.000Z,0
2023-05-01T02:04:52.000Z,0
2023-05-01T02:06:07.000Z,0
2023-05-01T02:07:23.000Z,0
2023-05-01T02:08:39.000Z,0
2023-05-01T02:09:55.134Z,0
2023-05-01T02:11:12.000Z,0
2023-05-01T02:12:28.000Z,0
2023-05-01T02:13:43.703Z,0
2023-05-01T02:15:00.000Z,0
2023-05-01T02:16:17.000Z,0
2023-05-01T02:17:32.273Z,0
2023-05-01T02:18:48.463Z,0
2023-05-01T02:20:05.000Z,0
2023-05-01T02:21:21.000Z,0
2023-05-01T02:22:38.000Z,0
2023-05-01T02:23:53.000Z,0
2023-05-01T02:25:09.000Z,0
2023-05-01T02:26:25.000Z,0
2023-05-01T02:27:41.000Z,0
2023-05-01T02:28:56.999Z,0
2023-05-01T02:30:14.000Z,0
2023-05-01T02:31:30.000Z,0
2023-05-01T02:32:46.000Z,0
2023-05-01T02:34:02.000Z,0
2023-05-01T02:35:18.000Z,0
2023-05-01T02:36:35.000Z,0
2023-05-01T02:37:51.000Z,0
2023-05-01T02:39:07.000Z,0
2023-05-01T02:40:22.000Z,0
2023-05-01T02:41:37.916Z,0
2023-05-01T02:42:55.000Z,0
2023-05-01T02:44:11.000Z,0
2023-05-01T02:45:27.000Z,0
2023-05-01T02:46:42.676Z,0
2023-05-01T02:47:59.000Z,0
2023-05-01T02:49:16.000Z,0
2023-05-01T02:50:32.000Z,0
2023-05-01T02:51:48.000Z,0
2023-05-01T02:53:04.000Z,0
2023-05-01T02:54:20.000Z,0
2023-05-01T02:55:37.000Z,0
2023-05-01T02:56:52.000Z,0
2023-05-01T02:58:08.000Z,0
2023-05-01T02:59:24.000Z,0
2023-05-01T03:00:40.000Z,0
2023-05-01T03:01:56.000Z,0
2023-05-01T03:03:12.000Z,0
2023-05-01T03:04:28.000Z,0
2023-05-01T03:05:44.000Z,0
2023-05-01T03:07:00.000Z,0
2023-05-01T03:08:16.000Z,0
2023-05-01T03:09:33.000Z,0
2023-05-01T03:10:49.000Z,0
2023-05-01T03:12:05.000Z,0
2023-05-01T03:13:21.000Z,0
2023-05-01T03:14:37.000Z,0
2023-05-01T03:15:54.000Z,0
2023-05-01T03:17:10.000Z,0
2023-05-01T03:18:26.000Z,0
2023-05-01T03:19:41.000Z,0
2023-05-01T03:20:57.000Z,0
2023-05-01T03:22:13.052Z,0
2023-05-01T03:23:30.000Z,0
2023-05-01T03:24:46.000Z,0
2023-05-01T03:26:02.000Z,4
2023-05-01T03:27:18.000Z,4
2023-05-01T03:28:35.000Z,0
2023-05-01T03:29:51.000Z,4
2023-05-01T03:31:07.000Z,4
2023-05-01T03:32:23.000Z,4
2023-05-01T03:33:39.000Z,8
2023-05-01T03:34:54.956Z,8
2023-05-01T03:36:11.000Z,8
2023-05-01T03:37:26.353Z,12
2023-05-01T03:38:43.000Z,16
2023-05-01T03:39:59.000Z,16
2023-05-01T03:41:15.000Z,20
2023-05-01T03:42:32.000Z,24
2023-05-01T03:43:48.000Z,24
2023-05-01T03:45:04.000Z,32
2023-05-01T03:46:20.000Z,36
2023-05-01T03:47:36.000Z,48
2023-05-01T03:48:53.000Z,56
2023-05-01T03:50:09.000Z,64
2023-05-01T03:51:25.000Z,76
2023-05-01T03:52:40.000Z,84
2023-05-01T03:53:56.000Z,100
2023-05-01T03:55:13.000Z,112
2023-05-01T03:56:29.000Z,124
2023-05-01T03:57:45.000Z,144
2023-05-01T03:59:00.605Z,160
2023-05-01T04:00:16.795Z,180
2023-05-01T04:01:33.000Z,204
2023-05-01T04:02:50.000Z,228
2023-05-01T04:04:06.000Z,248
2023-05-01T04:05:22.000Z,276
2023-05-01T04:06:38.000Z,304
2023-05-01T04:07:54.000Z,332
2023-05-01T04:09:09.142Z,368
2023-05-01T04:10:26.000Z,404
2023-05-01T04:11:42.000Z,444
2023-05-01T04:12:57.712Z,480
2023-05-01T04:14:14.000Z,528
2023-05-01T04:15:31.000Z,572
2023-05-01T04:16:46.284Z,624
2023-05-01T04:18:03.000Z,680
2023-05-01T04:19:18.663Z,736
2023-05-01T04:20:35.000Z,796
2023-05-01T04:21:52.000Z,860
2023-05-01T04:23:08.000Z,936
2023-05-01T04:24:24.000Z,1016
2023-05-01T04:25:38.629Z,1088
2023-05-01T04:26:55.000Z,1180
2023-05-01T04:28:11.010Z,1284
2023-05-01T04:29:28.000Z,1400
2023-05-01T04:30:44.000Z,1520
2023-05-01T04:32:00.000Z,1620
2023-05-01T04:33:16.000Z,1708
2023-05-01T04:34:32.000Z,1780
2023-05-01T04:35:49.000Z,1844
2023-05-01T04:37:04.340Z,1880
2023-05-01T04:38:21.000Z,1944
2023-05-01T04:39:36.720Z,2096
2023-05-01T04:40:53.000Z,2172
2023-05-01T04:42:09.000Z,2176
2023-05-01T04:43:25.000Z,2156
2023-05-01T04:44:41.000Z,2276
2023-05-01T04:45:57.000Z,2392
2023-05-01T04:47:13.000Z,2444
2023-05-01T04:48:30.000Z,2576
2023-05-01T04:49:45.258Z,2732
2023-05-01T04:51:02.000Z,3012
2023-05-01T04:52:17.638Z,3352
2023-05-01T04:53:33.829Z,2920
2023-05-01T04:54:50.019Z,2956
2023-05-01T04:56:07.000Z,3060
2023-05-01T04:57:23.000Z,3080
2023-05-01T04:58:38.000Z,2972
2023-05-01T04:59:54.000Z,3020
2023-05-01T05:01:10.000Z,2940
2023-05-01T05:02:26.176Z,2932
2023-05-01T05:03:42.365Z,2940
2023-05-01T05:04:58.556Z,2988
2023-05-01T05:06:15.000Z,3096
2023-05-01T05:07:31.000Z,3288
2023-05-01T05:08:47.125Z,3556
2023-05-01T05:10:04.000Z,3776
2023-05-01T05:11:20.000Z,3936
2023-05-01T05:12:36.000Z,4124
2023-05-01T05:13:52.000Z,4316
2023-05-01T05:15:08.000Z,4308
2023-05-01T05:16:24.000Z,4744
2023-05-01T05:17:40.000Z,4800
2023-05-01T05:18:56.000Z,4888
2023-05-01T05:20:12.000Z,4904
2023-05-01T05:21:28.043Z,4640
2023-05-01T05:22:45.000Z,4256
2023-05-01T05:24:01.000Z,4124
2023-05-01T05:25:16.614Z,4256
2023-05-01T05:26:33.000Z,4472
2023-05-01T05:27:49.000Z,4988
2023-05-01T05:29:06.000Z,5260
2023-05-01T05:30:22.000Z,5396
2023-05-01T05:31:37.000Z,5380
2023-05-01T05:32:53.000Z,5992
2023-05-01T05:34:08.958Z,5736
2023-05-01T05:35:26.000Z,5648
2023-05-01T05:36:42.000Z,5412
2023-05-01T05:37:58.000Z,5344
2023-05-01T05:39:14.000Z,5528
2023-05-01T05:40:30.000Z,5716
2023-05-01T05:41:47.000Z,5736
2023-05-01T05:43:03.000Z,5840
2023-05-01T05:44:19.000Z,5872
2023-05-01T05:45:35.000Z,5792
2023-05-01T05:46:51.000Z,5820
2023-05-01T05:48:07.000Z,6044
2023-05-01T05:49:23.000Z,6112
2023-05-01T05:50:38.445Z,6480
2023-05-01T05:51:55.000Z,6940
2023-05-01T05:53:10.825Z,7484
2023-05-01T05:54:28.000Z,7864
2023-05-01T05:55:43.206Z,8184
2023-05-01T05:57:00.000Z,8304
2023-05-01T05:58:16.000Z,8872
2023-05-01T05:59:32.000Z,9268
2023-05-01T06:00:48.000Z,8344
2023-05-01T06:02:04.157Z,7940
2023-05-01T06:03:20.348Z,7844
2023-05-01T06:04:36.000Z,8204
2023-05-01T06:05:52.000Z,8204
2023-05-01T06:07:08.000Z,8144
2023-05-01T06:08:25.000Z,8392
2023-05-01T06:09:40.313Z,8192
2023-05-01T06:10:57.000Z,8160
2023-05-01T06:12:12.692Z,8540
2023-05-01T06:13:29.000Z,9464
2023-05-01T06:14:46.000Z,9048
2023-05-01T06:16:02.000Z,9320
2023-05-01T06:17:18.000Z,9740
2023-05-01T06:18:34.000Z,9868
2023-05-01T06:19:50.000Z,10172
2023-05-01T06:21:05.040Z,10556
2023-05-01T06:22:22.000Z,11832
2023-05-01T06:23:37.419Z,15196
2023-05-01T06:24:54.000Z,12544
2023-05-01T06:26:10.000Z,12448
2023-05-01T06:27:25.988Z,11836
2023-05-01T06:28:43.000Z,12664
2023-05-01T06:29:59.000Z,14876
2023-05-01T06:31:15.000Z,13144
2023-05-01T06:32:31.000Z,15584
2023-05-01T06:33:47.000Z,17376
2023-05-01T06:35:03.127Z,15528
2023-05-01T06:36:20.000Z,14360
2023-05-01T06:37:35.000Z,14648
2023-05-01T06:38:51.000Z,13732
2023-05-01T06:40:07.000Z,14668
2023-05-01T06:41:24.000Z,18400
2023-05-01T06:42:40.000Z,14420
2023-05-01T06:43:56.000Z,14524
2023-05-01T06:45:12.000Z,18656
2023-05-01T06:46:28.000Z,12036
2023-05-01T06:47:44.042Z,11364
2023-05-01T06:49:01.000Z,11928
2023-05-01T06:50:17.000Z,11064
2023-05-01T06:51:33.000Z,11056
2023-05-01T06:52:49.000Z,10960
2023-05-01T06:54:05.000Z,11208
2023-05-01T06:55:21.000Z,11768
2023-05-01T06:56:37.000Z,11940
2023-05-01T06:57:53.000Z,11768
2023-05-01T06:59:09.000Z,11800
2023-05-01T07:00:24.955Z,11860
2023-05-01T07:01:42.000Z,12148
2023-05-01T07:02:58.000Z,12644
2023-05-01T07:04:14.000Z,13156
2023-05-01T07:05:30.000Z,13720
2023-05-01T07:06:45.906Z,14212
2023-05-01T07:08:03.000Z,14476
2023-05-01T07:09:19.000Z,14636
2023-05-01T07:10:34.000Z,14600
2023-05-01T07:11:50.000Z,14620
2023-05-01T07:13:06.000Z,14584
2023-05-01T07:14:23.000Z,14416
2023-05-01T07:15:39.000Z,14128
2023-05-01T07:16:55.000Z,13948
2023-05-01T07:18:10.000Z,13672
2023-05-01T07:19:26.000Z,13376
2023-05-01T07:20:43.000Z,13328
2023-05-01T07:21:59.000Z,13412
2023-05-01T07:23:15.000Z,13648
2023-05-01T07:24:31.000Z,14020
2023-05-01T07:25:46.793Z,14184
2023-05-01T07:27:03.000Z,14472
2023-05-01T07:28:20.000Z,14612
2023-05-01T07:29:36.000Z,14576
2023-05-01T07:30:52.000Z,14704
2023-05-01T07:32:08.000Z,15096
2023-05-01T07:33:24.000Z,15448
2023-05-01T07:34:40.000Z,15840
2023-05-01T07:35:56.000Z,16484
2023-05-01T07:37:12.000Z,17088
2023-05-01T07:38:27.702Z,17312
2023-05-01T07:39:43.893Z,17696
2023-05-01T07:41:00.082Z,17984
2023-05-01T07:42:17.000Z,17888
2023-05-01T07:43:33.000Z,17568
2023-05-01T07:44:49.000Z,16468
2023-05-01T07:46:05.000Z,15856
2023-05-01T07:47:22.000Z,15360
2023-05-01T07:48:38.000Z,15520
2023-05-01T07:49:54.000Z,15832
2023-05-01T07:51:09.000Z,15832
2023-05-01T07:52:25.000Z,15824
2023-05-01T07:53:42.000Z,15980
2023-05-01T07:54:58.000Z,16024
2023-05-01T07:56:14.000Z,15808
2023-05-01T07:57:30.000Z,15492
2023-05-01T07:58:46.000Z,14676
2023-05-01T08:00:02.000Z,13980
2023-05-01T08:01:18.142Z,13344
2023-05-01T08:02:35.000Z,13004
2023-05-01T08:03:51.000Z,13368
2023-05-01T08:05:07.000Z,13596
2023-05-01T08:06:23.000Z,13700
2023-05-01T08:07:39.000Z,13224
2023-05-01T08:08:55.000Z,13036
2023-05-01T08:10:11.000Z,12984
2023-05-01T08:11:27.000Z,13428
2023-05-01T08:12:43.000Z,13288
2023-05-01T08:14:00.000Z,13052
2023-05-01T08:15:16.000Z,12896
2023-05-01T08:16:32.000Z,12816
2023-05-01T08:17:48.000Z,12800
2023-05-01T08:19:04.000Z,12832
2023-05-01T08:20:21.000Z,12884
2023-05-01T08:21:36.203Z,12552
2023-05-01T08:22:53.000Z,12356
2023-05-01T08:24:08.000Z,12316
2023-05-01T08:25:24.000Z,12328
2023-05-01T08:26:40.000Z,12836
2023-05-01T08:27:57.000Z,13388
2023-05-01T08:29:13.000Z,14024
2023-05-01T08:30:29.000Z,14440
2023-05-01T08:31:45.000Z,14796
2023-05-01T08:33:01.000Z,15020
2023-05-01T08:34:18.000Z,15392
2023-05-01T08:35:34.000Z,15552
2023-05-01T08:36:50.000Z,15720
2023-05-01T08:38:05.691Z,16032
2023-05-01T08:39:21.881Z,15968
2023-05-01T08:40:38.000Z,15496
2023-05-01T08:41:53.278Z,15064
2023-05-01T08:43:10.000Z,14912
2023-05-01T08:44:25.658Z,14608
2023-05-01T08:45:42.000Z,14180
2023-05-01T08:46:59.000Z,13692
2023-05-01T08:48:14.228Z,13176
2023-05-01T08:49:31.000Z,12812
2023-05-01T08:50:46.609Z,12656
2023-05-01T08:52:02.798Z,12692
2023-05-01T08:53:18.988Z,12916
2023-05-01T08:54:36.000Z,13276
2023-05-01T08:55:51.367Z,13560
2023-05-01T08:57:07.000Z,13836
2023-05-01T08:58:23.000Z,14068
2023-05-01T08:59:39.000Z,14144
2023-05-01T09:00:56.000Z,14228
2023-05-01T09:02:12.000Z,14496
2023-05-01T09:03:28.000Z,14744
2023-05-01T09:04:44.000Z,14940
2023-05-01T09:06:00.000Z,15296
2023-05-01T09:07:16.092Z,15816
2023-05-01T09:08:33.000Z,16432
2023-05-01T09:09:48.472Z,16864
2023-05-01T09:11:05.000Z,17024
2023-05-01T09:12:21.000Z,17184
2023-05-01T09:13:37.000Z,17184
2023-05-01T09:14:53.000Z,17024
2023-05-01T09:16:09.000Z,16992
2023-05-01T09:17:25.000Z,17088
2023-05-01T09:18:40.816Z,17344
2023-05-01T09:19:58.000Z,17472
2023-05-01T09:21:13.194Z,17664
2023-05-01T09:22:29.384Z,17792
2023-05-01T09:23:46.000Z,17952
2023-05-01T09:25:02.000Z,18336
2023-05-01T09:26:17.952Z,18400
2023-05-01T09:27:34.141Z,18752
2023-05-01T09:28:51.000Z,19168
2023-05-01T09:30:05.536Z,19072
2023-05-01T09:31:22.000Z,19072
2023-05-01T09:32:37.914Z,19328
2023-05-01T09:33:54.104Z,19584
2023-05-01T09:35:11.000Z,19936
2023-05-01T09:36:27.000Z,20064
2023-05-01T09:37:43.000Z,20352
2023-05-01T09:38:59.000Z,19904
2023-05-01T09:40:16.000Z,19808
2023-05-01T09:41:32.000Z,19328
2023-05-01T09:42:48.000Z,18720
2023-05-01T09:44:03.623Z,18496
2023-05-01T09:45:19.813Z,17568
2023-05-01T09:46:36.000Z,15856
2023-05-01T09:47:51.210Z,15320
2023-05-01T09:49:08.000Z,15248
2023-05-01T09:50:24.000Z,15020
2023-05-01T09:51:40.000Z,14484
2023-05-01T09:52:56.000Z,14476
2023-05-01T09:54:13.000Z,14612
2023-05-01T09:55:29.000Z,14736
2023-05-01T09:56:45.000Z,14584
2023-05-01T09:58:00.729Z,14512
2023-05-01T09:59:16.919Z,14356
2023-05-01T10:00:34.000Z,13644
2023-05-01T10:01:50.000Z,13624
2023-05-01T10:03:05.000Z,14068
2023-05-01T10:04:21.000Z,14568
2023-05-01T10:05:36.886Z,14260
2023-05-01T10:06:54.000Z,13964
2023-05-01T10:08:10.000Z,13452
2023-05-01T10:09:26.000Z,12844
2023-05-01T10:10:42.000Z,12500
2023-05-01T10:11:58.000Z,12164
2023-05-01T10:13:14.026Z,12088
2023-05-01T10:14:31.000Z,12256
2023-05-01T10:15:46.404Z,12092
2023-05-01T10:17:03.000Z,19520
2023-05-01T10:18:19.000Z,24992
2023-05-01T10:19:34.000Z,10980
2023-05-01T10:20:50.175Z,10324
2023-05-01T10:22:07.000Z,10252
2023-05-01T10:23:22.552Z,10604
2023-05-01T10:24:39.000Z,14284
2023-05-01T10:25:55.000Z,20960
2023-05-01T10:27:12.000Z,31200
2023-05-01T10:28:28.000Z,23040
2023-05-01T10:29:44.000Z,17760
2023-05-01T10:31:00.000Z,11456
2023-05-01T10:32:15.871Z,18912
2023-05-01T10:33:33.000Z,42432
2023-05-01T10:34:49.000Z,22464
2023-05-01T10:36:04.000Z,41248
2023-05-01T10:37:19.641Z,38144
2023-05-01T10:38:36.000Z,24832
2023-05-01T10:39:53.000Z,26496
2023-05-01T10:41:09.000Z,32576
2023-05-01T10:42:25.000Z,50752
2023-05-01T10:43:41.000Z,26560
2023-05-01T10:44:57.000Z,15108
2023-05-01T10:46:13.000Z,36736
2023-05-01T10:47:30.000Z,51040
2023-05-01T10:48:46.000Z,18144
2023-05-01T10:50:02.000Z,15192
2023-05-01T10:51:18.000Z,18624
2023-05-01T10:52:33.000Z,29984
2023-05-01T10:53:50.000Z,63232
2023-05-01T10:55:06.000Z,66240
2023-05-01T10:56:22.000Z,33088
2023-05-01T10:57:38.000Z,33664
2023-05-01T10:58:53.863Z,37824
2023-05-01T11:00:11.000Z,52160
2023-05-01T11:01:27.000Z,44672
2023-05-01T11:02:43.000Z,27680
2023-05-01T11:03:59.000Z,37184
2023-05-01T11:05:15.000Z,28768
2023-05-01T11:06:31.000Z,23232
2023-05-01T11:07:48.000Z,38048
2023-05-01T11:09:03.000Z,39712
2023-05-01T11:10:19.000Z,42400
2023-05-01T11:11:35.000Z,48480
2023-05-01T11:12:51.000Z,41856
2023-05-01T11:14:08.000Z,35840
2023-05-01T11:15:23.333Z,37248
2023-05-01T11:16:40.000Z,33696
2023-05-01T11:17:56.000Z,25504
2023-05-01T11:19:12.000Z,29088
2023-05-01T11:20:29.000Z,21792
2023-05-01T11:21:44.275Z,19840
2023-05-01T11:23:00.463Z,19808
2023-05-01T11:24:17.000Z,20000
2023-05-01T11:25:33.000Z,20128
2023-05-01T11:26:49.000Z,19840
2023-05-01T11:28:05.000Z,18944
2023-05-01T11:29:20.423Z,17408
2023-05-01T11:30:36.612Z,16416
2023-05-01T11:31:52.800Z,16800
2023-05-01T11:33:09.000Z,18176
2023-05-01T11:34:24.199Z,19552
2023-05-01T11:35:41.000Z,20672
2023-05-01T11:36:57.000Z,20640
2023-05-01T11:38:13.000Z,19968
2023-05-01T11:39:29.000Z,19360
2023-05-01T11:40:45.143Z,18816
2023-05-01T11:42:02.000Z,18592
2023-05-01T11:43:18.000Z,19328
2023-05-01T11:44:34.000Z,20320
2023-05-01T11:45:49.898Z,20800
2023-05-01T11:47:07.000Z,20832
2023-05-01T11:48:23.000Z,20960
2023-05-01T11:49:37.480Z,20832
2023-05-01T11:50:54.000Z,20544
2023-05-01T11:52:10.000Z,20480
2023-05-01T11:53:27.000Z,24128
2023-05-01T11:54:43.000Z,32064
2023-05-01T11:55:59.000Z,33408
2023-05-01T11:57:15.000Z,30848
2023-05-01T11:58:31.000Z,18176
2023-05-01T11:59:47.000Z,17760
2023-05-01T12:01:04.000Z,19232
2023-05-01T12:02:20.000Z,20544
2023-05-01T12:03:36.000Z,18944
2023-05-01T12:04:52.000Z,32672
2023-05-01T12:06:07.000Z,39104
2023-05-01T12:07:24.000Z,50400
2023-05-01T12:08:40.000Z,53024
2023-05-01T12:09:56.000Z,51872
2023-05-01T12:11:12.000Z,42208
2023-05-01T12:12:27.893Z,42432
2023-05-01T12:13:45.000Z,63008
2023-05-01T12:15:01.000Z,73056
2023-05-01T12:16:17.000Z,20320
2023-05-01T12:17:33.000Z,43456
2023-05-01T12:18:49.000Z,24256
2023-05-01T12:20:06.000Z,34976
2023-05-01T12:21:22.000Z,31744
2023-05-01T12:22:36.421Z,37056
2023-05-01T12:23:53.000Z,39744
2023-05-01T12:25:09.000Z,40928
2023-05-01T12:26:25.000Z,31616
2023-05-01T12:27:42.000Z,28736
2023-05-01T12:28:58.000Z,51872
2023-05-01T12:30:14.000Z,48608
2023-05-01T12:31:30.000Z,18112
2023-05-01T12:32:45.931Z,18464
2023-05-01T12:34:03.000Z,17472
2023-05-01T12:35:19.000Z,17216
2023-05-01T12:36:35.000Z,17792
2023-05-01T12:37:50.686Z,19328
2023-05-01T12:39:05.891Z,21024
2023-05-01T12:40:23.000Z,20224
2023-05-01T12:41:38.268Z,22848
2023-05-01T12:42:55.000Z,30016
2023-05-01T12:44:11.000Z,23104
2023-05-01T12:45:27.000Z,23904
2023-05-01T12:46:44.000Z,24096
2023-05-01T12:47:59.212Z,22496
2023-05-01T12:49:16.000Z,26784
2023-05-01T12:50:31.589Z,55552
2023-05-01T12:51:48.000Z,35520
2023-05-01T12:53:03.968Z,64992
2023-05-01T12:54:21.000Z,49408
2023-05-01T12:55:36.000Z,63680
2023-05-01T12:56:52.000Z,55744
2023-05-01T12:58:08.000Z,25888
2023-05-01T12:59:24.000Z,21888
2023-05-01T13:00:41.000Z,21248
2023-05-01T13:01:56.304Z,23968
2023-05-01T13:03:13.000Z,40704
2023-05-01T13:04:28.682Z,22592
2023-05-01T13:05:45.000Z,19488
2023-05-01T13:07:02.000Z,24448
2023-05-01T13:08:18.000Z,16864
2023-05-01T13:09:33.437Z,18112
2023-05-01T13:10:50.000Z,13536
2023-05-01T13:12:05.000Z,12984
2023-05-01T13:13:22.000Z,12800
2023-05-01T13:14:38.000Z,12668
2023-05-01T13:15:54.000Z,12508
2023-05-01T13:17:10.000Z,12416
2023-05-01T13:18:26.000Z,12792
2023-05-01T13:19:42.000Z,13292
2023-05-01T13:20:59.000Z,13396
2023-05-01T13:22:15.000Z,13704
2023-05-01T13:23:31.000Z,13712
2023-05-01T13:24:47.000Z,13664
2023-05-01T13:26:03.000Z,13756
2023-05-01T13:27:20.000Z,14032
2023-05-01T13:28:35.000Z,14416
2023-05-01T13:29:51.000Z,14824
2023-05-01T13:31:07.000Z,14804
2023-05-01T13:32:23.000Z,14608
2023-05-01T13:33:40.000Z,14224
2023-05-01T13:34:56.000Z,13984
2023-05-01T13:36:12.000Z,13896
2023-05-01T13:37:28.000Z,13896
2023-05-01T13:38:44.000Z,14216
2023-05-01T13:40:00.000Z,15924
2023-05-01T13:41:17.000Z,15300
2023-05-01T13:42:33.000Z,15400
2023-05-01T13:43:49.000Z,15676
2023-05-01T13:45:04.000Z,15872
2023-05-01T13:46:19.955Z,15804
2023-05-01T13:47:37.000Z,15600
2023-05-01T13:48:52.333Z,15632
2023-05-01T13:50:08.521Z,15600
2023-05-01T13:51:25.000Z,15980
2023-05-01T13:52:41.000Z,15724
2023-05-01T13:53:58.000Z,15580
2023-05-01T13:55:14.000Z,15748
2023-05-01T13:56:30.000Z,16208
2023-05-01T13:57:46.000Z,31680
2023-05-01T13:59:02.000Z,18528
2023-05-01T14:00:19.000Z,31200
2023-05-01T14:01:33.234Z,30048
2023-05-01T14:02:50.000Z,28096
2023-05-01T14:04:06.000Z,31872
2023-05-01T14:05:22.000Z,19136
2023-05-01T14:06:38.000Z,22944
2023-05-01T14:07:55.000Z,29024
2023-05-01T14:09:10.366Z,17120
2023-05-01T14:10:27.000Z,15700
2023-05-01T14:11:43.000Z,15192
2023-05-01T14:12:59.000Z,14120
2023-05-01T14:14:16.000Z,13272
2023-05-01T14:15:32.000Z,12860
2023-05-01T14:16:48.000Z,12636
2023-05-01T14:18:02.704Z,12308
2023-05-01T14:19:19.000Z,11972
2023-05-01T14:20:36.000Z,11648
2023-05-01T14:21:52.000Z,11472
2023-05-01T14:23:08.000Z,11428
2023-05-01T14:24:24.000Z,11080
2023-05-01T14:25:40.000Z,10664
2023-05-01T14:26:57.000Z,10448
2023-05-01T14:28:13.000Z,10356
2023-05-01T14:29:28.400Z,10224
2023-05-01T14:30:45.000Z,10108
2023-05-01T14:32:01.000Z,10120
2023-05-01T14:33:16.965Z,9984
2023-05-01T14:34:33.000Z,9808
2023-05-01T14:35:49.000Z,9736
2023-05-01T14:37:04.545Z,10100
2023-05-01T14:38:21.000Z,11296
2023-05-01T14:39:36.920Z,14628
2023-05-01T14:40:54.000Z,36800
2023-05-01T14:42:10.000Z,42656
2023-05-01T14:43:26.000Z,27520
2023-05-01T14:44:42.000Z,20384
2023-05-01T14:45:57.862Z,19872
2023-05-01T14:47:15.000Z,15076
2023-05-01T14:48:31.000Z,14600
2023-05-01T14:49:47.000Z,14136
2023-05-01T14:51:01.632Z,13656
2023-05-01T14:52:17.820Z,12748
2023-05-01T14:53:35.000Z,11644
2023-05-01T14:54:51.000Z,10840
2023-05-01T14:56:07.000Z,10440
2023-05-01T14:57:23.000Z,10304
2023-05-01T14:58:39.000Z,10432
2023-05-01T14:59:54.951Z,10464
2023-05-01T15:01:11.139Z,10404
2023-05-01T15:02:28.000Z,10244
2023-05-01T15:03:44.000Z,10096
2023-05-01T15:05:00.000Z,10024
2023-05-01T15:06:16.000Z,9968
2023-05-01T15:07:32.000Z,9896
2023-05-01T15:08:48.000Z,9776
2023-05-01T15:10:04.000Z,9736
2023-05-01T15:11:20.000Z,9480
2023-05-01T15:12:36.000Z,9184
2023-05-01T15:13:53.000Z,8876
2023-05-01T15:15:08.224Z,8516
2023-05-01T15:16:25.000Z,8832
2023-05-01T15:17:41.000Z,8776
2023-05-01T15:18:56.788Z,8464
2023-05-01T15:20:13.000Z,8316
2023-05-01T15:21:30.000Z,8516
2023-05-01T15:22:46.000Z,9320
2023-05-01T15:24:01.000Z,8676
2023-05-01T15:25:17.000Z,8856
2023-05-01T15:26:32.933Z,8976
2023-05-01T15:27:50.000Z,8944
2023-05-01T15:29:06.000Z,8856
2023-05-01T15:30:22.000Z,8720
2023-05-01T15:31:37.687Z,8648
2023-05-01T15:32:54.000Z,8604
2023-05-01T15:34:11.000Z,8924
2023-05-01T15:35:27.000Z,9756
2023-05-01T15:36:43.000Z,10320
2023-05-01T15:37:59.000Z,10252
2023-05-01T15:39:15.000Z,9988
2023-05-01T15:40:30.024Z,10320
2023-05-01T15:41:47.000Z,20192
2023-05-01T15:43:03.000Z,12048
2023-05-01T15:44:18.591Z,28768
2023-05-01T15:45:35.000Z,33600
2023-05-01T15:46:50.969Z,30848
2023-05-01T15:48:07.000Z,33248
2023-05-01T15:49:22.368Z,36512
2023-05-01T15:50:39.000Z,35232
2023-05-01T15:51:54.743Z,23712
2023-05-01T15:53:11.000Z,29184
2023-05-01T15:54:28.000Z,14464
2023-05-01T15:55:44.000Z,12664
2023-05-01T15:56:59.496Z,11972
2023-05-01T15:58:15.685Z,10992
2023-05-01T15:59:31.873Z,10100
2023-05-01T16:00:49.000Z,9076
2023-05-01T16:02:05.000Z,8208
2023-05-01T16:03:21.000Z,7520
2023-05-01T16:04:36.000Z,6980
2023-05-01T16:05:51.831Z,6864
2023-05-01T16:07:09.000Z,7220
2023-05-01T16:08:25.000Z,6964
2023-05-01T16:09:41.000Z,6700
2023-05-01T16:10:57.000Z,6556
2023-05-01T16:12:13.000Z,6280
2023-05-01T16:13:29.000Z,5960
2023-05-01T16:14:46.000Z,5648
2023-05-01T16:16:02.000Z,5304
2023-05-01T16:17:18.000Z,4920
2023-05-01T16:18:34.000Z,4488
2023-05-01T16:19:49.904Z,4100
2023-05-01T16:21:05.108Z,3564
2023-05-01T16:22:22.000Z,3148
2023-05-01T16:23:37.485Z,2840
2023-05-01T16:24:54.000Z,2616
2023-05-01T16:26:10.000Z,2476
2023-05-01T16:27:27.000Z,2384
2023-05-01T16:28:43.000Z,2356
2023-05-01T16:29:58.425Z,2388
2023-05-01T16:31:15.000Z,2500
2023-05-01T16:32:30.803Z,2660
2023-05-01T16:33:47.000Z,2800
2023-05-01T16:35:04.000Z,2836
2023-05-01T16:36:19.370Z,2796
2023-05-01T16:37:35.000Z,2704
2023-05-01T16:38:51.000Z,2572
2023-05-01T16:40:07.000Z,2468
2023-05-01T16:41:24.000Z,2308
2023-05-01T16:42:39.330Z,2148
2023-05-01T16:43:56.000Z,1968
2023-05-01T16:45:12.000Z,1764
2023-05-01T16:46:28.000Z,1564
2023-05-01T16:47:44.083Z,1368
2023-05-01T16:49:00.271Z,1196
2023-05-01T16:50:16.460Z,1060
2023-05-01T16:51:33.000Z,960
2023-05-01T16:52:48.837Z,876
2023-05-01T16:54:04.041Z,804
2023-05-01T16:55:21.000Z,736
2023-05-01T16:56:37.000Z,676
2023-05-01T16:57:53.000Z,632
2023-05-01T16:59:09.000Z,588